Time;durP1;ratioP1;P1;durP2;ratioP2;P2;SDS_P1;SDS_P2;PMS_P1;PMS_P2;Temp;Humidity;BMP_temperature;BMP_pressure;BME280_temperature;BME280_humidity;BME280_pressure;Samples;Min_cycle;Max_cycle;Signal;HPM_P1;HPM_P2
2022/12/28 00:01:57;;;;;;;10.77;3.65;;;;;;;4.82;100.00;100509.81;12212402;19;20026;-84
2022/12/28 00:05:59;;;;;;;7.85;3.92;;;;;;;4.84;100.00;100501.41;12191593;19;20946;-85
2022/12/28 00:10:02;;;;;;;8.10;3.42;;;;;;;4.84;100.00;100494.06;12218173;19;20015;-85
2022/12/28 00:14:04;;;;;;;12.30;3.70;;;;;;;4.90;100.00;100490.53;12217729;19;20003;-84
2022/12/28 00:18:05;;;;;;;7.25;3.50;;;;;;;5.06;100.00;100492.19;12190949;19;20002;-84
2022/12/28 00:22:07;;;;;;;9.07;3.35;;;;;;;5.14;100.00;100478.34;12213747;19;20044;-84
2022/12/28 00:26:11;;;;;;;12.63;4.43;;;;;;;5.21;100.00;100468.34;12211911;19;20010;-84
2022/12/28 00:30:13;;;;;;;9.88;4.20;;;;;;;5.19;100.00;100455.91;12189697;19;20003;-83
2022/12/28 00:34:14;;;;;;;12.23;4.38;;;;;;;5.16;100.00;100459.88;12206536;19;20046;-84
2022/12/28 00:38:16;;;;;;;8.07;4.72;;;;;;;5.16;100.00;100448.94;12204112;19;20003;-84
2022/12/28 00:42:18;;;;;;;9.50;4.50;;;;;;;5.15;100.00;100440.97;12185603;19;21988;-84
2022/12/28 00:46:19;;;;;;;9.48;4.35;;;;;;;5.15;100.00;100422.69;12204128;19;20007;-84
2022/12/28 00:50:21;;;;;;;9.30;4.28;;;;;;;5.14;100.00;100411.94;12207743;19;20650;-84
2022/12/28 00:54:22;;;;;;;7.93;4.00;;;;;;;5.22;100.00;100422.72;12185298;19;20386;-84
2022/12/28 00:58:24;;;;;;;10.00;4.07;;;;;;;5.28;100.00;100415.63;12205933;19;20613;-83
2022/12/28 01:02:26;;;;;;;7.97;4.22;;;;;;;5.32;100.00;100412.25;12207948;19;20010;-84
2022/12/28 01:06:29;;;;;;;8.52;3.97;;;;;;;5.39;100.00;100395.94;12184049;19;20050;-84
2022/12/28 01:10:31;;;;;;;7.60;3.73;;;;;;;5.45;100.00;100389.66;12207300;19;20011;-83
2022/12/28 01:14:33;;;;;;;6.95;3.45;;;;;;;5.45;100.00;100376.81;12205530;19;20267;-83
2022/12/28 01:18:34;;;;;;;7.65;3.95;;;;;;;5.48;100.00;100370.94;12184941;19;20349;-84
2022/12/28 01:22:36;;;;;;;7.32;3.63;;;;;;;5.51;100.00;100368.88;12204789;19;20396;-83
2022/12/28 01:26:40;;;;;;;7.78;3.10;;;;;;;5.55;100.00;100362.78;12181976;19;20007;-83
2022/12/28 01:30:44;;;;;;;4.85;2.42;;;;;;;5.59;100.00;100344.94;12204813;19;20005;-83
2022/12/28 01:34:45;;;;;;;8.20;3.10;;;;;;;5.68;100.00;100357.38;12204289;19;20095;-83
2022/12/28 01:38:54;;;;;;;5.40;2.10;;;;;;;5.79;100.00;100361.41;12184901;19;19999;-84
2022/12/28 01:42:57;;;;;;;5.85;2.50;;;;;;;5.84;100.00;100330.72;12208098;19;20015;-83
2022/12/28 01:47:03;;;;;;;5.68;2.55;;;;;;;5.97;100.00;100336.22;12215508;19;20489;-83
2022/12/28 01:51:05;;;;;;;5.28;2.50;;;;;;;6.06;100.00;100315.84;12217845;19;20010;-85
2022/12/28 01:55:24;;;;;;;5.03;2.20;;;;;;;6.09;100.00;100314.56;12263393;19;20005;-85
2022/12/28 01:59:32;;;;;;;4.70;2.05;;;;;;;6.22;100.00;100311.03;12233173;19;20008;-84
2022/12/28 02:03:35;;;;;;;5.88;2.60;;;;;;;6.31;100.00;100298.81;12185520;19;20003;-83
2022/12/28 02:07:47;;;;;;;6.72;2.67;;;;;;;6.41;100.00;100284.72;12205938;19;20039;-85
2022/12/28 02:11:49;;;;;;;6.50;2.22;;;;;;;6.47;100.00;100272.91;12185798;19;20010;-83
2022/12/28 02:15:51;;;;;;;5.15;2.67;;;;;;;6.54;100.00;100268.25;12207286;19;20003;-84
2022/12/28 02:19:52;;;;;;;4.60;2.13;;;;;;;6.58;100.00;100272.28;12200131;19;20445;-83
2022/12/28 02:23:57;;;;;;;4.82;2.05;;;;;;;6.69;100.00;100279.81;12181309;19;20003;-83
2022/12/28 02:28:05;;;;;;;5.38;1.70;;;;;;;6.74;100.00;100288.25;12197759;19;20035;-84
2022/12/28 02:32:34;;;;;;;5.28;1.77;;;;;;;6.89;100.00;100284.44;12204270;19;20009;-81
2022/12/28 02:36:44;;;;;;;4.65;1.63;;;;;;;6.98;100.00;100269.44;12176598;19;20501;-82
2022/12/28 02:40:55;;;;;;;4.30;2.10;;;;;;;7.01;100.00;100277.25;12206929;19;20039;-82
2022/12/28 02:58:47;;;;;;;8.93;3.85;;;;;;;6.75;100.00;100257.09;12202667;19;20464;-83
2022/12/28 03:02:58;;;;;;;8.27;3.40;;;;;;;6.61;100.00;100248.03;12185920;19;20070;-83
2022/12/28 03:12:08;;;;;;;9.07;4.20;;;;;;;6.38;100.00;100239.44;12193315;19;20002;-83
2022/12/28 03:16:27;;;;;;;9.95;4.80;;;;;;;6.24;100.00;100244.06;12216712;19;19998;-82
2022/12/28 03:33:47;;;;;;;11.10;3.92;;;;;;;6.20;100.00;100223.66;12196242;19;20480;-84
2022/12/28 03:37:58;;;;;;;9.07;4.15;;;;;;;6.23;100.00;100219.66;12214314;19;20007;-84
2022/12/28 03:46:45;;;;;;;7.13;3.37;;;;;;;6.30;100.00;100191.22;12205771;19;20006;-86
2022/12/28 03:50:48;;;;;;;6.38;3.10;;;;;;;6.35;100.00;100191.44;12204020;19;20018;-85
2022/12/28 03:54:51;;;;;;;7.97;3.20;;;;;;;6.40;100.00;100174.38;12212838;19;20006;-84
2022/12/28 03:58:54;;;;;;;4.50;1.88;;;;;;;6.53;100.00;100168.88;12214511;19;20015;-84
2022/12/28 04:02:59;;;;;;;4.85;2.50;;;;;;;6.61;100.00;100148.63;12189464;19;20478;-84
2022/12/28 04:07:02;;;;;;;7.07;2.45;;;;;;;6.68;100.00;100143.97;12211337;19;20006;-84
2022/12/28 04:11:04;;;;;;;5.07;2.40;;;;;;;6.69;100.00;100136.59;12208345;19;20006;-85
2022/12/28 04:15:07;;;;;;;4.32;2.15;;;;;;;6.85;100.00;100139.69;12188079;19;20570;-84
2022/12/28 04:19:09;;;;;;;4.35;2.33;;;;;;;6.90;100.00;100133.56;12208985;19;20002;-85
2022/12/28 04:23:11;;;;;;;4.07;2.00;;;;;;;7.02;100.00;100130.94;12205002;19;20774;-86
2022/12/28 04:27:12;;;;;;;6.25;2.50;;;;;;;7.11;100.00;100131.53;12186135;19;20034;-84
2022/12/28 04:31:14;;;;;;;3.78;1.70;;;;;;;7.13;100.00;100141.22;12208276;19;20010;-85
2022/12/28 04:35:23;;;;;;;7.03;2.28;;;;;;;7.18;100.00;100130.44;12205742;19;20003;-85
2022/12/28 04:39:26;;;;;;;4.72;1.80;;;;;;;7.29;100.00;100135.25;12186808;19;20007;-86
2022/12/28 04:43:48;;;;;;;4.07;1.63;;;;;;;7.34;100.00;100117.28;12210653;19;20013;-81
2022/12/28 04:47:49;;;;;;;4.13;1.95;;;;;;;7.46;100.00;100120.97;12196048;19;20010;-83
2022/12/28 04:51:51;;;;;;;3.03;1.52;;;;;;;7.50;100.00;100127.72;12254980;19;20025;-81
2022/12/28 04:55:54;;;;;;;3.10;1.60;;;;;;;7.53;100.00;100124.53;12257740;19;19998;-85
2022/12/28 04:59:55;;;;;;;2.63;1.45;;;;;;;7.60;100.00;100110.78;12236384;19;20006;-85
2022/12/28 05:03:57;;;;;;;3.22;1.60;;;;;;;7.57;100.00;100108.47;12258072;19;20191;-85
2022/12/28 05:08:01;;;;;;;3.33;1.60;;;;;;;7.62;100.00;100105.91;12257796;19;20010;-85
2022/12/28 05:12:02;;;;;;;3.03;1.80;;;;;;;7.62;100.00;100108.66;12234071;19;20011;-83
2022/12/28 05:16:08;;;;;;;5.60;1.88;;;;;;;7.61;100.00;100116.00;12254547;19;19994;-83
2022/12/28 05:20:10;;;;;;;5.72;1.75;;;;;;;7.63;100.00;100100.19;12225777;19;20009;-82
2022/12/28 05:24:12;;;;;;;6.10;1.80;;;;;;;7.63;100.00;100102.94;12192638;19;20037;-81
2022/12/28 05:28:13;;;;;;;4.72;2.05;;;;;;;7.59;100.00;100104.44;12235135;19;20119;-82
2022/12/28 05:32:15;;;;;;;2.20;1.80;;;;;;;7.56;100.00;100099.41;12214300;19;20040;-82
2022/12/28 05:36:19;;;;;;;11.05;2.33;;;;;;;7.53;100.00;100099.84;12193173;19;20026;-83
2022/12/28 05:40:21;;;;;;;4.32;1.83;;;;;;;7.50;100.00;100089.34;12215321;19;20141;-84
2022/12/28 05:44:24;;;;;;;4.43;1.77;;;;;;;7.47;100.00;100085.13;12211566;19;19999;-84
2022/12/28 05:48:25;;;;;;;5.47;2.17;;;;;;;7.47;100.00;100089.78;12188427;19;20942;-83
2022/12/28 05:52:29;;;;;;;4.53;1.92;;;;;;;7.48;100.00;100080.47;12208354;19;20046;-82
2022/12/28 05:56:31;;;;;;;3.15;1.60;;;;;;;7.45;100.00;100072.69;12207653;19;20382;-82
2022/12/28 06:00:33;;;;;;;4.32;1.80;;;;;;;7.42;100.00;100078.63;12213919;19;20100;-83
2022/12/28 06:04:34;;;;;;;5.30;2.10;;;;;;;7.43;100.00;100070.16;12221679;19;20031;-83
2022/12/28 06:08:37;;;;;;;7.60;1.60;;;;;;;7.43;100.00;100058.38;12208624;19;20494;-83
2022/12/28 06:12:39;;;;;;;;;;;;;;;7.35;100.00;100064.13;12186185;19;20421;-85
2022/12/28 06:16:41;;;;;;;2.88;1.60;;;;;;;7.42;100.00;100060.28;12205849;19;19927;-83
2022/12/28 06:20:43;;;;;;;3.30;1.70;;;;;;;7.48;100.00;100056.63;12185835;19;20010;-83
2022/12/28 06:24:44;;;;;;;3.03;1.70;;;;;;;7.47;100.00;100054.13;12205773;19;20377;-83
2022/12/28 06:28:51;;;;;;;5.30;1.90;;;;;;;7.46;100.00;100060.66;12203541;19;20570;-84
2022/12/28 06:32:55;;;;;;;3.67;1.50;;;;;;;7.39;100.00;100051.66;12179839;19;20002;-83
2022/12/28 06:36:57;;;;;;;4.47;1.75;;;;;;;7.30;100.00;100040.13;12200471;19;20030;-82
2022/12/28 06:41:03;;;;;;;5.75;1.85;;;;;;;7.33;100.00;100033.38;12203164;19;20027;-84
2022/12/28 06:45:15;;;;;;;5.00;1.85;;;;;;;7.25;100.00;100032.56;12180579;19;20010;-84
2022/12/28 06:49:18;;;;;;;3.28;1.70;;;;;;;7.24;100.00;100028.16;12198891;19;20007;-85
2022/12/28 06:53:27;;;;;;;4.68;1.77;;;;;;;7.29;100.00;100022.03;12203030;19;20014;-82
2022/12/28 06:57:29;;;;;;;3.40;1.98;;;;;;;7.26;100.00;100026.03;12181610;19;20964;-83
2022/12/28 07:01:37;;;;;;;3.73;1.60;;;;;;;7.29;100.00;100022.03;12198395;19;20014;-82
2022/12/28 07:05:40;;;;;;;2.97;1.60;;;;;;;7.29;100.00;100028.34;12184700;19;20010;-83
2022/12/28 07:09:42;;;;;;;5.90;2.20;;;;;;;7.26;100.00;100023.31;12201465;19;20080;-83
2022/12/28 07:13:44;;;;;;;5.03;2.05;;;;;;;7.25;100.00;100027.09;12202296;19;20006;-82
2022/12/28 07:17:45;;;;;;;5.32;1.50;;;;;;;7.27;100.00;100024.97;12179537;19;20011;-82
2022/12/28 07:21:48;;;;;;;5.38;1.88;;;;;;;7.31;100.00;100020.72;12202669;19;20003;-82
2022/12/28 07:25:51;;;;;;;4.25;1.60;;;;;;;7.33;100.00;100030.63;12198323;19;20019;-85
2022/12/28 07:29:54;;;;;;;11.40;2.05;;;;;;;7.27;100.00;100022.22;12184806;19;20035;-84
2022/12/28 07:33:58;;;;;;;3.72;1.60;;;;;;;7.38;100.00;100017.09;12202144;19;20010;-83
2022/12/28 07:37:59;;;;;;;3.45;1.45;;;;;;;7.43;100.00;100028.22;12205689;19;20010;-83
2022/12/28 07:42:05;;;;;;;2.58;1.67;;;;;;;7.45;100.00;100028.84;12181780;19;20019;-82
2022/12/28 07:46:10;;;;;;;3.47;1.80;;;;;;;7.48;100.00;100015.50;12208126;19;20002;-80
2022/12/28 07:50:13;;;;;;;3.92;2.13;;;;;;;7.54;100.00;100014.59;12238883;19;20050;-82
2022/12/28 07:54:15;;;;;;;4.38;1.92;;;;;;;7.55;100.00;100007.22;12253658;19;20006;-84
2022/12/28 07:58:16;;;;;;;5.18;1.45;;;;;;;7.62;100.00;100005.28;12251821;19;20010;-83
2022/12/28 08:02:18;;;;;;;3.05;1.50;;;;;;;7.67;100.00;99996.34;12221938;19;20717;-83
2022/12/28 08:06:24;;;;;;;4.82;1.80;;;;;;;7.69;100.00;99981.34;12159671;19;20663;-85
2022/12/28 08:10:26;;;;;;;4.95;1.40;;;;;;;7.79;100.00;99985.47;12219408;19;20011;-82
2022/12/28 08:14:29;;;;;;;2.65;1.38;;;;;;;7.87;100.00;99988.75;12220807;19;20012;-82
2022/12/28 08:18:32;;;;;;;3.20;1.20;;;;;;;7.95;100.00;99993.09;12215464;19;20044;-83
2022/12/28 08:22:34;;;;;;;5.60;1.23;;;;;;;8.03;100.00;99992.81;12264614;19;20005;-83
2022/12/28 08:26:38;;;;;;;2.95;1.38;;;;;;;8.02;100.00;99990.28;12232989;19;20006;-84
2022/12/28 08:30:53;;;;;;;3.85;1.75;;;;;;;8.09;100.00;99980.06;12193291;19;20002;-84
2022/12/28 08:34:55;;;;;;;6.35;1.45;;;;;;;8.13;99.78;99984.03;12209866;19;20018;-83
2022/12/28 08:38:59;;;;;;;3.17;1.23;;;;;;;8.21;99.85;99983.72;12187509;19;20011;-83
2022/12/28 08:43:02;;;;;;;3.08;1.30;;;;;;;8.25;98.79;99975.88;12215377;19;20002;-83
2022/12/28 08:47:04;;;;;;;6.13;1.58;;;;;;;8.22;98.36;99978.00;12218056;19;20014;-85
2022/12/28 08:51:34;;;;;;;4.55;1.30;;;;;;;8.34;98.16;99982.72;12190633;19;20010;-84
2022/12/28 08:55:36;;;;;;;2.88;1.27;;;;;;;8.35;97.72;99973.41;12201819;19;20086;-84
2022/12/28 08:59:37;;;;;;;4.43;1.20;;;;;;;8.36;97.36;99983.34;12186206;19;20006;-84
2022/12/28 09:03:42;;;;;;;2.63;1.50;;;;;;;8.34;97.05;99974.47;12186571;19;20349;-83
2022/12/28 09:07:44;;;;;;;3.58;1.40;;;;;;;8.28;96.84;99975.41;12207299;19;20027;-82
2022/12/28 09:11:46;;;;;;;3.53;1.38;;;;;;;8.31;96.53;99969.44;12184603;19;20927;-83
2022/12/28 09:15:59;;;;;;;3.80;1.50;;;;;;;8.42;96.54;99979.69;12208892;19;20003;-82
2022/12/28 09:20:00;;;;;;;2.70;1.13;;;;;;;8.41;96.17;99970.59;12207317;19;20031;-82
2022/12/28 09:24:02;;;;;;;5.38;1.40;;;;;;;8.50;96.02;99973.84;12189398;19;20006;-82
2022/12/28 09:28:04;;;;;;;3.15;0.95;;;;;;;8.61;95.30;99973.06;12214665;19;20005;-82
2022/12/28 09:32:05;;;;;;;2.83;1.25;;;;;;;8.81;95.15;99980.19;12210941;19;20496;-82
2022/12/28 09:36:07;;;;;;;2.83;1.48;;;;;;;8.87;93.91;99971.03;12194446;19;19996;-82
2022/12/28 09:40:11;;;;;;;2.08;1.10;;;;;;;8.96;93.88;99966.03;12209695;19;20398;-82
2022/12/28 09:44:16;;;;;;;3.00;1.27;;;;;;;9.06;93.59;99969.84;12211323;19;20058;-81
2022/12/28 09:48:21;;;;;;;3.35;1.13;;;;;;;9.14;91.56;99960.44;12195031;19;20010;-82
2022/12/28 09:52:29;;;;;;;8.15;1.20;;;;;;;9.20;91.09;99961.41;12212904;19;20007;-83
2022/12/28 09:56:56;;;;;;;3.65;1.30;;;;;;;9.23;90.02;99955.44;12211368;19;20007;-83
2022/12/28 10:01:00;;;;;;;3.33;2.13;;;;;;;9.28;89.83;99953.66;12187290;19;21643;-81
2022/12/28 10:05:02;;;;;;;3.75;1.38;;;;;;;9.34;89.90;99951.84;12205011;19;20006;-82
2022/12/28 10:09:12;;;;;;;1.50;0.88;;;;;;;9.38;88.46;99949.47;12179986;19;20013;-82
2022/12/28 10:13:37;;;;;;;3.55;0.98;;;;;;;9.44;87.75;99941.09;12205102;19;20003;-82
2022/12/28 10:17:56;;;;;;;4.43;1.13;;;;;;;9.50;87.84;99940.13;12172040;19;20015;-84
2022/12/28 10:21:59;;;;;;;6.38;1.40;;;;;;;9.55;86.87;99937.50;12203339;19;20023;-85
2022/12/28 10:26:03;;;;;;;2.65;1.30;;;;;;;9.72;86.64;99939.50;12204099;19;20119;-82
2022/12/28 10:30:15;;;;;;;3.00;1.30;;;;;;;10.06;83.98;99928.69;12183135;19;20006;-82
2022/12/28 10:34:20;;;;;;;2.40;1.15;;;;;;;10.36;82.36;99918.31;12205872;19;20003;-82
2022/12/28 10:38:26;;;;;;;2.55;1.08;;;;;;;10.70;80.36;99902.66;12201384;19;20042;-84
2022/12/28 10:42:38;;;;;;;8.88;1.50;;;;;;;10.66;78.80;99901.50;12182634;19;20010;-86
2022/12/28 10:46:51;;;;;;;3.57;1.00;;;;;;;10.56;79.53;99903.22;12206736;19;20007;-84
2022/12/28 10:50:57;;;;;;;2.10;1.20;;;;;;;10.49;80.41;99898.72;12187164;19;20007;-81
2022/12/28 10:54:59;;;;;;;4.90;1.17;;;;;;;10.35;80.38;99891.84;12203698;19;20487;-82
2022/12/28 10:59:09;;;;;;;3.35;1.38;;;;;;;10.38;81.73;99891.38;12203446;19;20405;-81
2022/12/28 11:03:18;;;;;;;3.75;0.93;;;;;;;10.59;80.77;99884.31;12183881;19;20023;-82
2022/12/28 11:07:34;;;;;;;3.13;1.50;;;;;;;11.10;79.92;99878.81;12201713;19;20027;-83
2022/12/28 11:11:36;;;;;;;3.22;1.15;;;;;;;11.46;77.33;99868.31;12208438;19;20733;-81
2022/12/28 11:15:39;;;;;;;3.38;1.40;;;;;;;11.47;76.00;99864.47;12184959;19;20013;-83
2022/12/28 11:19:41;;;;;;;2.90;1.33;;;;;;;11.41;75.93;99871.81;12204920;19;20033;-82
2022/12/28 11:23:43;;;;;;;2.53;1.23;;;;;;;11.50;75.19;99853.75;12199894;19;20426;-83
2022/12/28 11:27:46;;;;;;;2.93;1.57;;;;;;;11.42;74.89;99845.91;12195869;19;20047;-81
2022/12/28 11:31:54;;;;;;;3.10;1.35;;;;;;;11.31;76.72;99850.44;12209979;19;20062;-85
2022/12/28 11:35:57;;;;;;;3.75;1.63;;;;;;;11.11;76.43;99845.47;12193110;19;20039;-83
2022/12/28 11:40:01;;;;;;;1.38;0.80;;;;;;;11.21;77.16;99830.97;12210426;19;20536;-79
2022/12/28 11:44:04;;;;;;;2.42;1.15;;;;;;;11.41;76.96;99823.00;12209961;19;21384;-80
2022/12/28 11:48:40;;;;;;;5.00;1.30;;;;;;;11.31;76.35;99817.34;12190198;19;20015;-83
2022/12/28 11:52:46;;;;;;;4.88;1.33;;;;;;;11.34;76.14;99816.84;12211974;19;20018;-82
2022/12/28 11:56:51;;;;;;;3.42;1.50;;;;;;;11.12;75.84;99821.47;12210325;19;20012;-82
2022/12/28 12:00:52;;;;;;;3.03;1.17;;;;;;;10.95;77.35;99816.81;12210735;19;20039;-82
2022/12/28 12:04:55;;;;;;;;;;;;;;;10.92;76.76;99814.56;12214289;19;20006;-82
2022/12/28 12:08:57;;;;;;;2.78;1.33;;;;;;;10.88;77.71;99807.88;12188119;19;21231;-82
2022/12/28 12:13:01;;;;;;;2.75;1.20;;;;;;;10.87;78.53;99800.69;12210659;19;20049;-83
2022/12/28 12:17:12;;;;;;;4.57;1.13;;;;;;;11.06;78.18;99787.47;12211735;19;20538;-85
2022/12/28 12:21:40;;;;;;;3.85;1.17;;;;;;;11.11;77.96;99767.41;12194449;19;20007;-82
2022/12/28 12:25:47;;;;;;;1.67;1.08;;;;;;;11.24;77.43;99771.72;12211071;19;20002;-83
2022/12/28 12:30:00;;;;;;;3.15;1.27;;;;;;;11.20;76.80;99770.56;12212476;19;20034;-82
2022/12/28 12:34:25;;;;;;;5.45;1.45;;;;;;;11.16;77.48;99773.00;12189874;19;20006;-83
2022/12/28 12:38:42;;;;;;;2.65;1.13;;;;;;;11.35;77.21;99773.53;12212078;19;20014;-84
2022/12/28 12:43:06;;;;;;;3.03;1.20;;;;;;;11.50;75.82;99765.44;12193385;19;20003;-83
2022/12/28 12:47:26;;;;;;;3.78;1.30;;;;;;;11.24;75.80;99749.66;12213678;19;20017;-83
2022/12/28 12:51:49;;;;;;;3.13;1.40;;;;;;;11.16;77.81;99742.66;12192517;19;20527;-83
2022/12/28 12:55:50;;;;;;;3.25;1.30;;;;;;;10.92;78.94;99742.06;12211253;19;20002;-82
2022/12/28 13:00:02;;;;;;;2.72;1.33;;;;;;;10.82;79.73;99731.69;12194946;19;20010;-82
2022/12/28 13:04:20;;;;;;;2.40;1.20;;;;;;;10.67;80.68;99731.47;12212048;19;20006;-83
2022/12/28 13:08:31;;;;;;;4.75;1.88;;;;;;;10.50;81.78;99720.50;12209863;19;20013;-83
2022/12/28 13:12:35;;;;;;;7.18;1.17;;;;;;;10.52;82.21;99722.97;12188501;19;20013;-83
2022/12/28 13:16:37;;;;;;;1.83;1.20;;;;;;;10.56;82.72;99716.72;12209399;19;20002;-82
2022/12/28 13:20:38;;;;;;;4.57;1.50;;;;;;;10.64;82.46;99718.22;12218668;19;20437;-83
2022/12/28 13:24:44;;;;;;;4.72;1.45;;;;;;;10.69;82.55;99707.28;12236234;19;20032;-83
2022/12/28 13:28:58;;;;;;;2.28;1.25;;;;;;;10.72;81.99;99710.34;12262958;19;20019;-84
2022/12/28 13:33:03;;;;;;;7.53;1.40;;;;;;;10.69;82.55;99697.06;12197536;19;20066;-82
2022/12/28 13:37:16;;;;;;;2.05;1.00;;;;;;;10.57;82.95;99690.00;12210643;19;20385;-83
2022/12/28 13:41:24;;;;;;;4.20;1.35;;;;;;;10.58;83.03;99689.75;12212643;19;20010;-83
2022/12/28 13:45:26;;;;;;;2.03;1.05;;;;;;;10.44;83.56;99674.63;12192803;19;20003;-82
2022/12/28 13:49:34;;;;;;;4.03;1.43;;;;;;;10.47;83.61;99669.47;12233299;19;20026;-83
2022/12/28 13:53:36;;;;;;;4.28;1.50;;;;;;;10.40;83.69;99671.56;12264083;19;20015;-86
2022/12/28 13:57:41;;;;;;;1.95;1.08;;;;;;;10.33;83.94;99675.59;12210902;19;20081;-84
2022/12/28 14:01:50;;;;;;;2.45;1.23;;;;;;;10.32;84.35;99661.00;12211253;19;20349;-83
2022/12/28 14:05:54;;;;;;;3.17;1.20;;;;;;;10.25;84.50;99646.50;12209615;19;20002;-83
2022/12/28 14:09:57;;;;;;;3.25;1.25;;;;;;;10.19;84.45;99653.84;12182210;19;20015;-83
2022/12/28 14:13:59;;;;;;;4.13;1.25;;;;;;;10.16;84.41;99645.28;12208296;19;20010;-84
2022/12/28 14:18:01;;;;;;;4.97;1.42;;;;;;;10.22;84.48;99636.00;12186438;19;20003;-83
2022/12/28 14:22:27;;;;;;;3.92;1.40;;;;;;;10.16;84.41;99628.75;12205552;19;20519;-82
2022/12/28 14:26:29;;;;;;;2.88;1.00;;;;;;;10.16;83.96;99621.31;12206010;19;20114;-83
2022/12/28 14:30:40;;;;;;;4.47;1.52;;;;;;;10.13;83.57;99640.25;12184921;19;20023;-83
2022/12/28 14:34:42;;;;;;;3.08;1.40;;;;;;;10.12;82.73;99616.59;12204154;19;20157;-84
2022/12/28 14:38:47;;;;;;;3.40;1.13;;;;;;;10.15;83.05;99610.56;12202672;19;20645;-82
2022/12/28 14:42:51;;;;;;;1.85;1.13;;;;;;;10.18;83.07;99610.06;12188309;19;20007;-83
2022/12/28 14:46:53;;;;;;;3.45;1.25;;;;;;;10.15;82.90;99607.81;12202557;19;20014;-82
2022/12/28 14:51:03;;;;;;;2.17;0.98;;;;;;;10.19;82.89;99595.19;12205778;19;19999;-82
2022/12/28 14:55:23;;;;;;;2.08;1.05;;;;;;;10.25;82.15;99600.53;12181528;19;20002;-82
2022/12/28 14:59:35;;;;;;;5.05;1.38;;;;;;;10.23;81.82;99610.97;12205238;19;20010;-81
2022/12/28 15:03:56;;;;;;;3.17;1.10;;;;;;;10.23;81.08;99601.88;12180189;19;20002;-81
2022/12/28 15:07:58;;;;;;;2.45;0.88;;;;;;;10.30;81.71;99597.06;12202521;19;20007;-84
2022/12/28 15:12:06;;;;;;;4.60;1.85;;;;;;;10.30;81.36;99597.06;12183537;19;20103;-82
2022/12/28 15:16:12;;;;;;;7.05;2.90;;;;;;;10.26;81.69;99596.75;12204147;19;20460;-81
2022/12/28 15:20:16;;;;;;;4.97;2.40;;;;;;;10.16;81.64;99588.28;12201004;19;20054;-84
2022/12/28 15:24:18;;;;;;;4.93;2.08;;;;;;;10.23;81.51;99585.34;12179148;19;19996;-82
2022/12/28 15:28:25;;;;;;;3.17;1.17;;;;;;;10.22;81.11;99579.00;12199696;19;20502;-82
2022/12/28 15:32:27;;;;;;;3.63;1.30;;;;;;;10.23;80.42;99569.69;12199322;19;20009;-82
2022/12/28 15:36:29;;;;;;;3.08;1.50;;;;;;;10.23;80.51;99577.06;12179473;19;20006;-83
2022/12/28 15:40:31;;;;;;;5.15;1.45;;;;;;;10.31;80.17;99565.66;12200884;19;20073;-82
2022/12/28 15:44:32;;;;;;;4.30;1.40;;;;;;;10.23;79.97;99557.81;12199082;19;20007;-82
2022/12/28 15:48:34;;;;;;;5.28;1.98;;;;;;;10.16;80.04;99548.91;12178761;19;20007;-81
2022/12/28 15:52:42;;;;;;;3.55;1.23;;;;;;;10.03;80.02;99541.84;12191944;19;20170;-82
2022/12/28 15:56:51;;;;;;;1.98;1.05;;;;;;;10.02;79.90;99557.53;12271596;19;20002;-82
2022/12/28 16:00:53;;;;;;;5.40;1.08;;;;;;;10.08;80.52;99543.81;12186979;19;20034;-83
2022/12/28 16:05:07;;;;;;;3.08;1.27;;;;;;;9.96;80.30;99524.66;12201027;19;20014;-83
2022/12/28 16:09:10;;;;;;;1.80;0.90;;;;;;;9.96;80.60;99522.72;12182759;19;20010;-82
2022/12/28 16:13:12;;;;;;;1.77;0.68;;;;;;;9.93;80.26;99516.91;12216912;19;20018;-80
2022/12/28 16:17:14;;;;;;;1.77;0.82;;;;;;;9.93;80.31;99520.47;12215981;19;20010;-83
2022/12/28 16:21:16;;;;;;;2.43;0.87;;;;;;;9.91;80.13;99517.16;12193330;19;20499;-83
2022/12/28 16:25:18;;;;;;;2.75;1.10;;;;;;;9.90;80.28;99525.66;12213899;19;20032;-82
2022/12/28 16:29:20;;;;;;;1.67;1.10;;;;;;;9.97;79.88;99520.84;12218842;19;20468;-84
2022/12/28 16:33:22;;;;;;;2.28;1.20;;;;;;;9.95;79.69;99518.31;12192122;19;20544;-82
2022/12/28 16:37:24;;;;;;;3.58;1.00;;;;;;;9.92;79.84;99520.75;12214491;19;20017;-82
2022/12/28 16:41:26;;;;;;;2.60;1.08;;;;;;;9.94;79.61;99521.34;12215207;19;20011;-82
2022/12/28 16:45:41;;;;;;;2.97;1.30;;;;;;;10.01;79.61;99513.72;12194398;19;20002;-83
2022/12/28 16:49:43;;;;;;;3.63;1.00;;;;;;;10.03;79.62;99514.31;12217256;19;20530;-84
2022/12/28 16:53:45;;;;;;;4.32;1.30;;;;;;;10.04;79.14;99521.47;12205412;19;20349;-84
2022/12/28 16:57:46;;;;;;;2.97;1.23;;;;;;;10.10;79.24;99511.38;12189081;19;20030;-82
2022/12/28 17:01:48;;;;;;;2.22;0.95;;;;;;;10.06;79.32;99521.25;12212381;19;20006;-83
2022/12/28 17:05:51;;;;;;;5.47;1.70;;;;;;;10.15;78.89;99506.78;12204649;19;20026;-83
2022/12/28 17:09:53;;;;;;;5.03;1.30;;;;;;;10.19;78.75;99518.09;12189549;19;20010;-83
2022/12/28 17:14:08;;;;;;;3.00;1.02;;;;;;;10.17;78.84;99512.00;12212110;19;20006;-81
2022/12/28 17:18:11;;;;;;;3.22;1.10;;;;;;;10.18;79.06;99506.25;12192454;19;20479;-82
2022/12/28 17:22:12;;;;;;;3.08;1.23;;;;;;;10.21;78.95;99491.16;12212184;19;20009;-82
2022/12/28 17:26:14;;;;;;;4.88;2.00;;;;;;;10.16;79.21;99491.91;12219207;19;20007;-83
2022/12/28 17:30:16;;;;;;;4.03;1.58;;;;;;;10.18;79.12;99486.16;12202664;19;20006;-83
2022/12/28 17:34:18;;;;;;;3.00;1.03;;;;;;;10.10;79.76;99481.09;12235277;19;20011;-82
2022/12/28 17:38:20;;;;;;;2.13;1.85;;;;;;;10.08;79.44;99467.56;12211794;19;20505;-82
2022/12/28 17:42:21;;;;;;;2.58;1.30;;;;;;;10.08;79.73;99467.56;12191578;19;20058;-83
2022/12/28 17:46:25;;;;;;;3.25;1.20;;;;;;;10.10;79.77;99459.88;12212722;19;20483;-82
2022/12/28 17:50:27;;;;;;;2.70;1.20;;;;;;;10.15;79.41;99457.22;12209603;19;20035;-82
2022/12/28 17:54:29;;;;;;;2.60;1.30;;;;;;;10.20;79.61;99454.53;12187895;19;20116;-82
2022/12/28 17:58:34;;;;;;;3.47;1.30;;;;;;;10.16;79.51;99444.28;12211324;19;20010;-83
2022/12/28 18:02:36;;;;;;;3.85;1.63;;;;;;;10.14;79.25;99457.47;12208917;19;20082;-84
2022/12/28 18:06:38;;;;;;;5.33;1.70;;;;;;;10.19;79.34;99444.59;12189137;19;20025;-82
2022/12/28 18:10:40;;;;;;;3.05;1.38;;;;;;;10.13;79.58;99420.00;12212357;19;20006;-81
2022/12/28 18:14:42;;;;;;;2.50;1.27;;;;;;;10.09;79.75;99432.63;12212687;19;20027;-82
2022/12/28 18:18:58;;;;;;;2.95;1.67;;;;;;;10.05;80.14;99418.53;12196531;19;20063;-81
2022/12/28 18:23:04;;;;;;;2.90;1.30;;;;;;;9.99;79.52;99398.38;12223167;19;20030;-83
2022/12/28 18:27:08;;;;;;;3.50;1.25;;;;;;;10.11;79.39;99386.38;12231728;19;20015;-80
2022/12/28 18:31:09;;;;;;;2.88;1.30;;;;;;;10.15;79.24;99368.28;12250098;19;20397;-80
2022/12/28 18:35:11;;;;;;;6.43;1.20;;;;;;;10.11;79.04;99367.13;12215083;19;20016;-81
2022/12/28 18:39:13;;;;;;;3.42;1.33;;;;;;;10.15;79.19;99346.25;12191423;19;20062;-81
2022/12/28 18:43:15;;;;;;;3.25;1.30;;;;;;;10.12;79.39;99352.28;12209320;19;20018;-82
2022/12/28 18:47:16;;;;;;;3.65;1.52;;;;;;;10.10;79.50;99343.44;12208447;19;19999;-83
2022/12/28 18:51:19;;;;;;;3.28;1.40;;;;;;;10.02;79.81;99331.81;12189620;19;20030;-83
2022/12/28 18:55:20;;;;;;;3.28;1.45;;;;;;;10.04;80.02;99337.88;12211491;19;20006;-82
2022/12/28 18:59:22;;;;;;;4.50;1.60;;;;;;;10.06;80.21;99347.81;12207414;19;20002;-81
2022/12/28 19:03:25;;;;;;;3.58;1.50;;;;;;;9.95;80.87;99333.91;12186630;19;20066;-82
2022/12/28 19:07:28;;;;;;;2.70;1.42;;;;;;;9.96;80.69;99338.31;12208397;19;20011;-80
2022/12/28 19:11:30;;;;;;;3.17;1.35;;;;;;;9.94;80.96;99335.00;12210114;19;20007;-82
2022/12/28 19:15:31;;;;;;;4.53;1.27;;;;;;;9.94;80.64;99329.50;12215789;19;20003;-83
2022/12/28 19:19:33;;;;;;;4.47;2.08;;;;;;;9.97;80.52;99323.50;12225582;19;20014;-83
2022/12/28 19:23:35;;;;;;;2.80;1.63;;;;;;;9.96;80.36;99326.47;12215243;19;20014;-81
2022/12/28 19:27:36;;;;;;;3.97;1.50;;;;;;;9.92;80.09;99315.16;12198534;19;20014;-82
2022/12/28 19:31:38;;;;;;;3.95;1.58;;;;;;;9.89;80.08;99312.09;12255353;19;20036;-83
2022/12/28 19:35:40;;;;;;;3.13;1.33;;;;;;;9.93;79.83;99300.31;12253206;19;20006;-82